Time;durP1;ratioP1;P1;durP2;ratioP2;P2;SDS_P1;SDS_P2;PMS_P1;PMS_P2;Temp;Humidity;BMP_temperature;BMP_pressure;BME280_temperature;BME280_humidity;BME280_pressure;Samples;Min_cycle;Max_cycle;Signal;HPM_P1;HPM_P2
2023/06/23 00:00:28;;;;;;;21.55;10.95;;;;;;;14.44;100.00;101717.56;5101951;28;20035;-66
2023/06/23 00:02:54;;;;;;;23.75;11.57;;;;;;;14.44;100.00;101723.78;5105613;28;20035;-65
2023/06/23 00:05:20;;;;;;;22.38;11.07;;;;;;;14.38;100.00;101722.88;5102449;28;20550;-65
2023/06/23 00:07:45;;;;;;;22.60;11.48;;;;;;;14.32;100.00;101728.19;5105303;28;20386;-63
2023/06/23 00:10:11;;;;;;;24.63;11.88;;;;;;;14.35;100.00;101726.41;5103395;28;20020;-74
2023/06/23 00:12:41;;;;;;;23.10;12.20;;;;;;;14.31;100.00;101724.63;5103881;28;20032;-74
2023/06/23 00:15:11;;;;;;;23.67;12.25;;;;;;;14.38;100.00;101721.09;5103918;28;20051;-68
2023/06/23 00:17:37;;;;;;;23.85;12.60;;;;;;;14.37;100.00;101739.72;5103521;28;20032;-74
2023/06/23 00:20:08;;;;;;;23.90;12.73;;;;;;;14.35;100.00;101738.84;5104595;28;20080;-74
2023/06/23 00:22:34;;;;;;;25.40;12.97;;;;;;;14.35;100.00;101741.50;5102991;28;20479;-61
2023/06/23 00:24:59;;;;;;;25.42;12.70;;;;;;;14.30;100.00;101739.72;5104960;28;20088;-66
2023/06/23 00:27:25;;;;;;;23.88;12.60;;;;;;;14.35;100.00;101737.06;5101980;28;20016;-66
2023/06/23 00:29:50;;;;;;;23.33;13.52;;;;;;;14.28;100.00;101752.13;5097862;28;20479;-62
2023/06/23 00:32:15;;;;;;;25.00;14.23;;;;;;;14.23;100.00;101748.53;5104468;28;20406;-70
2023/06/23 00:34:41;;;;;;;26.45;14.25;;;;;;;14.20;100.00;101753.88;5103295;28;20386;-62
2023/06/23 00:37:06;;;;;;;25.92;14.60;;;;;;;14.16;100.00;101762.69;5103112;28;20035;-74
2023/06/23 00:39:31;;;;;;;27.02;15.05;;;;;;;14.15;100.00;101763.56;5104194;28;20115;-74
2023/06/23 00:42:01;;;;;;;25.55;15.25;;;;;;;14.16;100.00;101764.47;5101768;28;20027;-73
2023/06/23 00:44:26;;;;;;;26.25;15.25;;;;;;;14.10;100.00;101775.97;5104888;28;20032;-74
2023/06/23 00:46:52;;;;;;;26.75;15.95;;;;;;;14.11;100.00;101775.06;5101549;28;20040;-73
2023/06/23 00:49:18;;;;;;;25.67;15.68;;;;;;;14.12;100.00;101774.19;5105083;28;20434;-73
2023/06/23 00:51:45;;;;;;;27.55;16.80;;;;;;;14.08;100.00;101775.06;5102500;28;20045;-73
2023/06/23 00:54:11;;;;;;;28.35;16.60;;;;;;;14.06;100.00;101779.50;5103238;28;20050;-70
2023/06/23 00:56:36;;;;;;;28.13;17.30;;;;;;;14.05;100.00;101789.25;5103543;28;20114;-63
2023/06/23 00:59:02;;;;;;;28.70;17.15;;;;;;;14.04;100.00;101805.19;5102184;28;20116;-74
2023/06/23 01:01:28;;;;;;;27.88;17.17;;;;;;;14.05;100.00;101805.22;5104543;28;20066;-62
2023/06/23 01:03:57;;;;;;;28.45;17.27;;;;;;;14.02;100.00;101814.91;5101231;28;20446;-74
2023/06/23 01:06:22;;;;;;;28.85;18.50;;;;;;;13.99;100.00;101815.78;5097222;28;20028;-73
2023/06/23 01:09:07;;;;;;;30.02;18.60;;;;;;;13.99;100.00;101820.22;5104456;28;20027;-72
2023/06/23 01:11:43;;;;;;;29.42;19.42;;;;;;;14.07;100.00;101826.47;5098861;28;20066;-74
2023/06/23 01:14:23;;;;;;;28.67;19.33;;;;;;;14.06;100.00;101830.00;5103095;28;20020;-73
2023/06/23 01:17:03;;;;;;;30.33;19.65;;;;;;;14.05;100.00;101828.22;5104494;28;20032;-74
2023/06/23 01:19:49;;;;;;;30.20;20.17;;;;;;;14.06;100.00;101822.91;5098280;28;20035;-62
2023/06/23 01:22:26;;;;;;;30.58;20.70;;;;;;;14.04;100.00;101818.50;5101928;28;20032;-73
2023/06/23 01:25:35;;;;;;;31.23;20.42;;;;;;;14.06;100.00;101819.38;5096900;28;20016;-62
2023/06/23 01:28:16;;;;;;;31.23;21.63;;;;;;;14.04;100.00;101822.03;5099150;28;20394;-69
2023/06/23 01:30:46;;;;;;;31.33;21.33;;;;;;;13.98;100.00;101829.06;5102484;28;20066;-68
2023/06/23 01:33:17;;;;;;;33.20;21.77;;;;;;;13.95;100.00;101836.16;5102904;28;20032;-72
2023/06/23 01:35:49;;;;;;;32.17;22.70;;;;;;;13.99;100.00;101834.38;5101962;28;20026;-70
2023/06/23 01:38:19;;;;;;;32.45;22.83;;;;;;;13.94;100.00;101837.03;5103650;28;20424;-69
2023/06/23 01:40:52;;;;;;;33.35;23.05;;;;;;;13.91;100.00;101833.47;5101870;28;20027;-74
2023/06/23 01:43:21;;;;;;;34.03;24.02;;;;;;;13.91;100.00;101839.66;5103690;28;20106;-68
2023/06/23 01:45:48;;;;;;;34.85;23.95;;;;;;;13.95;100.00;101841.47;5101248;28;20028;-74
2023/06/23 01:48:14;;;;;;;34.38;23.77;;;;;;;14.02;100.00;101845.03;5103301;28;20107;-73
2023/06/23 01:50:42;;;;;;;35.75;24.73;;;;;;;14.00;100.00;101841.50;5102473;28;20035;-73
2023/06/23 01:53:10;;;;;;;35.72;25.25;;;;;;;13.95;100.00;101841.47;5101976;28;20079;-64
2023/06/23 01:55:38;;;;;;;34.90;25.10;;;;;;;13.95;100.00;101851.22;5103221;28;20035;-66
2023/06/23 01:58:06;;;;;;;35.70;25.48;;;;;;;13.92;100.00;101845.84;5101921;28;20032;-74
2023/06/23 02:00:32;;;;;;;33.95;25.27;;;;;;;13.87;100.00;101848.50;5103230;28;20098;-72
2023/06/23 02:02:59;;;;;;;35.15;25.77;;;;;;;13.83;100.00;101853.78;5100730;28;20107;-62
2023/06/23 02:05:27;;;;;;;35.78;26.48;;;;;;;13.80;100.00;101861.75;5086081;28;20390;-66
2023/06/23 02:07:54;;;;;;;36.55;26.42;;;;;;;13.81;100.00;101856.44;5096659;28;20020;-64
2023/06/23 02:10:21;;;;;;;34.42;26.35;;;;;;;13.82;100.00;101865.28;5103764;28;20061;-66
2023/06/23 02:12:48;;;;;;;36.47;26.83;;;;;;;13.83;100.00;101861.75;5101780;28;20056;-66
2023/06/23 02:15:16;;;;;;;35.70;26.92;;;;;;;13.79;100.00;101871.50;5102704;28;20024;-66
2023/06/23 02:17:43;;;;;;;35.60;25.58;;;;;;;13.83;100.00;101873.25;5101804;28;20032;-65
2023/06/23 02:20:16;;;;;;;36.92;26.95;;;;;;;13.79;100.00;101876.81;5102404;28;20386;-66
2023/06/23 02:22:50;;;;;;;36.15;26.50;;;;;;;13.73;100.00;101882.03;5102112;28;20475;-66
2023/06/23 02:25:17;;;;;;;35.25;26.67;;;;;;;13.75;100.00;101885.63;5106792;28;20028;-66
2023/06/23 02:27:44;;;;;;;36.45;27.63;;;;;;;13.67;100.00;101885.53;5105234;28;20055;-63
2023/06/23 02:30:10;;;;;;;36.15;27.70;;;;;;;13.68;100.00;101894.44;5106089;28;20483;-66
2023/06/23 02:32:36;;;;;;;36.13;27.77;;;;;;;13.67;100.00;101892.63;5106351;28;20038;-66
2023/06/23 02:35:02;;;;;;;39.40;29.02;;;;;;;13.63;100.00;101898.78;5104700;28;20111;-66
2023/06/23 02:37:30;;;;;;;39.42;28.98;;;;;;;13.62;100.00;101907.66;5107574;28;20055;-66
2023/06/23 02:40:16;;;;;;;39.45;29.50;;;;;;;13.55;100.00;101918.22;5103954;28;20119;-65
2023/06/23 02:42:46;;;;;;;39.00;29.08;;;;;;;13.51;100.00;101926.16;5087630;28;20035;-65
2023/06/23 02:45:18;;;;;;;40.03;30.25;;;;;;;13.47;100.00;101924.31;5105365;28;20020;-61
2023/06/23 02:47:45;;;;;;;;;;;;;;;13.45;100.00;101924.31;5107067;28;20032;-63
2023/06/23 02:50:13;;;;;;;40.65;30.52;;;;;;;13.47;100.00;101927.91;5105386;28;20002;-62
2023/06/23 02:52:42;;;;;;;42.70;30.95;;;;;;;13.46;100.00;101928.75;5105092;28;20106;-66
2023/06/23 02:55:10;;;;;;;40.40;31.10;;;;;;;13.40;100.00;101926.06;5105572;28;20127;-66
2023/06/23 02:57:38;;;;;;;43.45;33.20;;;;;;;13.39;100.00;101935.75;5105069;28;20032;-66
2023/06/23 03:00:12;;;;;;;41.75;32.15;;;;;;;13.37;100.00;101947.28;5106141;28;20867;-66
2023/06/23 03:02:42;;;;;;;43.20;33.75;;;;;;;13.40;100.00;101939.34;5105251;28;20393;-66
2023/06/23 03:05:08;;;;;;;44.05;32.45;;;;;;;13.36;100.00;101937.53;5105735;28;20359;-65
2023/06/23 03:07:34;;;;;;;42.83;33.78;;;;;;;13.40;100.00;101939.34;5104078;28;20107;-64
2023/06/23 03:09:59;;;;;;;43.95;33.05;;;;;;;13.38;100.00;101943.72;5106463;28;20054;-66
2023/06/23 03:12:25;;;;;;;45.30;34.05;;;;;;;13.37;100.00;101942.84;5103578;28;20052;-66
2023/06/23 03:14:51;;;;;;;47.00;33.85;;;;;;;13.43;100.00;101942.03;5106951;28;20145;-70
2023/06/23 03:17:25;;;;;;;44.15;34.72;;;;;;;13.37;100.00;101940.19;5103852;28;20102;-63
2023/06/23 03:20:00;;;;;;;47.53;36.22;;;;;;;13.35;100.00;101944.59;5106631;28;20031;-61
2023/06/23 03:22:32;;;;;;;48.28;35.28;;;;;;;13.45;100.00;101944.69;5099480;28;20028;-74
2023/06/23 03:25:02;;;;;;;45.80;35.22;;;;;;;13.38;100.00;101947.28;5099828;28;20028;-64
2023/06/23 03:27:31;;;;;;;48.22;35.28;;;;;;;13.35;100.00;101949.00;5106421;28;20023;-62
2023/06/23 03:30:27;;;;;;;47.15;34.83;;;;;;;13.37;100.00;101957.91;5103125;28;20055;-74
2023/06/23 03:32:57;;;;;;;48.33;36.08;;;;;;;13.40;100.00;101952.63;5092842;28;20403;-65
2023/06/23 03:35:32;;;;;;;46.03;35.58;;;;;;;13.42;100.00;101958.81;5098039;28;20039;-73
2023/06/23 03:38:01;;;;;;;47.17;35.35;;;;;;;13.42;100.00;101962.34;5099510;28;20031;-74
2023/06/23 03:40:31;;;;;;;47.15;35.13;;;;;;;13.43;100.00;101957.97;5099502;28;20016;-64
2023/06/23 03:43:21;;;;;;;47.03;36.47;;;;;;;13.47;100.00;101965.09;5098876;28;20063;-73
2023/06/23 03:45:52;;;;;;;47.00;35.45;;;;;;;13.46;100.00;101962.41;5104061;28;20064;-74
2023/06/23 03:48:20;;;;;;;46.05;35.13;;;;;;;13.44;100.00;101954.44;5103468;28;20078;-74
2023/06/23 03:50:51;;;;;;;47.08;36.45;;;;;;;13.42;100.00;101956.16;5105224;28;20478;-62
2023/06/23 03:53:18;;;;;;;47.83;35.13;;;;;;;13.48;100.00;101963.31;5102973;28;20543;-74
2023/06/23 03:55:45;;;;;;;47.90;36.17;;;;;;;13.50;100.00;101958.88;5104591;28;20578;-74
2023/06/23 03:58:13;;;;;;;45.95;34.90;;;;;;;13.49;100.00;101958.00;5104114;28;20027;-73
2023/06/23 04:00:40;;;;;;;47.15;36.40;;;;;;;13.48;100.00;101965.97;5103966;28;20032;-68
2023/06/23 04:03:07;;;;;;;47.47;35.28;;;;;;;13.54;100.00;101972.25;5104554;28;20036;-68
2023/06/23 04:05:35;;;;;;;45.65;35.30;;;;;;;13.53;100.00;101982.84;5103124;28;20028;-68
2023/06/23 04:08:03;;;;;;;47.10;34.97;;;;;;;13.52;100.00;101981.06;5105715;28;20055;-68
2023/06/23 04:10:30;;;;;;;45.35;35.10;;;;;;;13.51;100.00;101988.13;5102164;28;20084;-68
2023/06/23 04:12:57;;;;;;;49.58;35.72;;;;;;;13.54;100.00;101996.16;5105805;28;20024;-68
2023/06/23 04:15:25;;;;;;;46.95;35.20;;;;;;;13.58;100.00;101994.41;5097948;28;20379;-69
2023/06/23 04:17:55;;;;;;;48.40;35.03;;;;;;;13.59;100.00;101994.41;5105461;28;20063;-68
2023/06/23 04:20:23;;;;;;;51.95;35.85;;;;;;;13.59;100.00;101998.84;5102505;28;20021;-68
2023/06/23 04:22:50;;;;;;;48.13;36.00;;;;;;;13.64;100.00;101993.56;5104774;28;20047;-68
2023/06/23 04:25:18;;;;;;;49.05;35.35;;;;;;;13.67;100.00;102004.22;5102856;28;20420;-78
2023/06/23 04:27:47;;;;;;;48.13;35.78;;;;;;;13.70;100.00;102007.81;5104200;28;20020;-69
2023/06/23 04:30:15;;;;;;;50.65;35.83;;;;;;;13.76;100.00;102006.97;5103476;28;20027;-70
2023/06/23 04:32:42;;;;;;;47.97;35.92;;;;;;;13.81;100.00;102007.03;5103506;28;20027;-68
2023/06/23 04:35:08;;;;;;;48.42;35.42;;;;;;;13.84;100.00;102010.59;5103905;28;20110;-68
2023/06/23 04:38:01;;;;;;;47.17;36.22;;;;;;;13.87;100.00;102010.63;5102646;28;20104;-68
2023/06/23 04:40:44;;;;;;;48.72;36.28;;;;;;;13.92;100.00;102018.63;5089735;28;20127;-68
2023/06/23 04:43:13;;;;;;;46.85;35.88;;;;;;;14.02;100.00;102022.28;5101125;28;20027;-70
2023/06/23 04:45:54;;;;;;;45.65;34.65;;;;;;;14.03;100.00;102024.94;5103372;28;20478;-68
2023/06/23 04:48:25;;;;;;;50.00;36.15;;;;;;;14.06;100.00;102027.63;5104519;28;20128;-71
2023/06/23 04:50:54;;;;;;;46.70;35.00;;;;;;;14.07;100.00;102024.09;5101794;28;20031;-71
2023/06/23 04:53:22;;;;;;;50.55;37.13;;;;;;;14.12;100.00;102019.72;5082759;28;20376;-75
2023/06/23 04:55:53;;;;;;;50.67;36.35;;;;;;;14.19;100.00;102025.97;5081846;28;20103;-74
2023/06/23 04:58:23;;;;;;;47.97;36.88;;;;;;;14.22;100.00;102028.63;5083926;28;20035;-74
2023/06/23 05:00:51;;;;;;;49.15;36.63;;;;;;;14.27;100.00;102028.66;5081707;28;20032;-74
2023/06/23 05:03:18;;;;;;;48.55;36.83;;;;;;;14.29;100.00;102042.88;5083530;28;20078;-74
2023/06/23 05:05:45;;;;;;;50.80;36.58;;;;;;;14.32;100.00;102045.56;5082330;28;20028;-74
2023/06/23 05:08:13;;;;;;;50.05;37.40;;;;;;;14.35;100.00;102056.22;5082627;28;20460;-74
2023/06/23 05:10:40;;;;;;;50.13;37.17;;;;;;;14.40;100.00;102061.59;5083342;28;20504;-72
2023/06/23 05:13:08;;;;;;;50.22;37.90;;;;;;;14.47;100.00;102063.41;5081856;28;20047;-75
2023/06/23 05:15:33;;;;;;;50.10;37.75;;;;;;;14.50;100.00;102058.09;5083630;28;20020;-73
2023/06/23 05:18:02;;;;;;;49.35;37.33;;;;;;;14.57;100.00;102065.25;5080992;28;20043;-64
2023/06/23 05:20:29;;;;;;;50.03;37.85;;;;;;;14.62;100.00;102063.56;5084291;28;20054;-62
2023/06/23 05:22:58;;;;;;;48.47;36.13;;;;;;;14.66;100.00;102067.13;5077091;28;20029;-70
2023/06/23 05:25:29;;;;;;;49.25;35.53;;;;;;;14.72;100.00;102064.53;5084460;28;20020;-74
2023/06/23 05:28:00;;;;;;;49.75;36.78;;;;;;;14.79;100.00;102065.44;5077083;28;20028;-75
2023/06/23 05:30:26;;;;;;;49.80;36.75;;;;;;;14.83;100.00;102064.59;5076659;28;20028;-70
2023/06/23 05:32:54;;;;;;;47.38;35.60;;;;;;;14.89;100.00;102075.25;5084000;28;20418;-71
2023/06/23 05:35:21;;;;;;;47.67;36.00;;;;;;;14.98;100.00;102080.66;5081487;28;20028;-73
2023/06/23 05:37:48;;;;;;;46.75;35.38;;;;;;;15.07;100.00;102077.16;5083138;28;20463;-61
2023/06/23 05:40:15;;;;;;;48.67;34.95;;;;;;;15.12;100.00;102072.72;5082012;28;20028;-63
2023/06/23 05:42:41;;;;;;;48.67;35.58;;;;;;;15.17;100.00;102072.75;5082165;28;20083;-70
2023/06/23 05:45:08;;;;;;;47.40;35.30;;;;;;;15.28;100.00;102076.34;5079098;28;20032;-69
2023/06/23 05:47:44;;;;;;;48.03;34.60;;;;;;;15.28;100.00;102079.00;5082527;28;20078;-71
2023/06/23 05:50:21;;;;;;;47.72;35.42;;;;;;;15.40;100.00;102079.97;5081285;28;20029;-74
2023/06/23 05:52:55;;;;;;;49.17;35.90;;;;;;;15.47;100.00;102087.09;5077292;28;20086;-68
2023/06/23 05:55:23;;;;;;;48.65;36.08;;;;;;;15.54;100.00;102083.56;5083442;28;20043;-75
2023/06/23 05:57:52;;;;;;;48.10;35.75;;;;;;;15.62;100.00;102089.78;5083028;28;20471;-72
2023/06/23 06:00:19;;;;;;;49.67;36.05;;;;;;;15.68;100.00;102083.59;5087240;28;20028;-70
2023/06/23 06:02:48;;;;;;;47.03;35.38;;;;;;;15.77;100.00;102090.72;5086510;28;20028;-68
2023/06/23 06:05:17;;;;;;;49.17;35.97;;;;;;;15.86;100.00;102085.47;5085805;28;20223;-67
2023/06/23 06:07:45;;;;;;;49.17;36.10;;;;;;;16.03;100.00;102091.72;5086272;28;20027;-67
2023/06/23 06:10:12;;;;;;;48.40;36.47;;;;;;;16.14;100.00;102097.06;5086436;28;20407;-73
2023/06/23 06:12:40;;;;;;;48.13;35.90;;;;;;;16.31;100.00;102099.75;5086515;28;20028;-75
2023/06/23 06:15:07;;;;;;;48.17;36.38;;;;;;;16.50;100.00;102100.63;5084458;28;20021;-75
2023/06/23 06:17:33;;;;;;;46.58;35.63;;;;;;;16.58;100.00;102108.63;5084681;28;20387;-63
2023/06/23 06:20:02;;;;;;;46.30;35.78;;;;;;;16.83;100.00;102105.94;5086176;28;20020;-63
2023/06/23 06:22:32;;;;;;;44.83;34.47;;;;;;;17.00;100.00;102100.59;5084785;28;20028;-64
2023/06/23 06:24:59;;;;;;;44.40;33.72;;;;;;;16.98;100.00;102091.66;5086372;28;20052;-67
2023/06/23 06:27:27;;;;;;;42.92;33.63;;;;;;;16.96;100.00;102082.78;5084454;28;20028;-65
2023/06/23 06:29:56;;;;;;;44.92;33.92;;;;;;;16.93;100.00;102093.47;5086432;28;20017;-62
2023/06/23 06:32:22;;;;;;;42.55;32.97;;;;;;;16.97;100.00;102090.78;5085098;28;20033;-62
2023/06/23 06:34:50;;;;;;;42.97;33.75;;;;;;;17.01;100.00;102097.03;5086330;28;20024;-62
2023/06/23 06:37:16;;;;;;;42.30;32.85;;;;;;;17.05;100.00;102105.03;5084107;28;20040;-63
2023/06/23 06:39:44;;;;;;;41.30;32.15;;;;;;;17.03;100.00;102101.47;5086764;28;20115;-64
2023/06/23 06:42:09;;;;;;;41.03;30.58;;;;;;;17.03;100.00;102098.78;5083412;28;20076;-63
2023/06/23 06:44:35;;;;;;;40.40;31.42;;;;;;;17.03;100.00;102101.47;5083691;28;20475;-64
2023/06/23 06:47:03;;;;;;;41.47;31.88;;;;;;;17.08;100.00;102112.13;5086978;28;20038;-62
2023/06/23 06:49:30;;;;;;;41.58;31.67;;;;;;;17.12;100.00;102105.88;5079398;28;20025;-62
2023/06/23 06:51:59;;;;;;;39.42;30.60;;;;;;;17.15;100.00;102111.22;5086532;28;20028;-64
2023/06/23 06:54:24;;;;;;;39.35;30.20;;;;;;;17.22;100.00;102123.66;5096431;28;20052;-62
2023/06/23 06:56:50;;;;;;;38.33;29.63;;;;;;;17.19;100.00;102122.81;5107152;28;20038;-62
2023/06/23 06:59:15;;;;;;;38.78;31.20;;;;;;;17.28;100.00;102122.75;5103920;28;20035;-62
2023/06/23 07:01:42;;;;;;;39.85;30.00;;;;;;;17.33;100.00;102120.06;5106245;28;20032;-75
2023/06/23 07:04:09;;;;;;;37.30;29.58;;;;;;;17.40;100.00;102117.38;5100348;28;20024;-71
2023/06/23 07:06:36;;;;;;;36.85;29.05;;;;;;;17.45;100.00;102116.47;5103651;28;20093;-74
2023/06/23 07:09:03;;;;;;;36.53;29.35;;;;;;;17.43;100.00;102125.38;5106465;28;20478;-70
2023/06/23 07:11:30;;;;;;;37.63;29.70;;;;;;;17.45;100.00;102124.50;5103042;28;20032;-73
2023/06/23 07:13:55;;;;;;;38.13;29.42;;;;;;;17.45;100.00;102132.53;5106720;28;20027;-74
2023/06/23 07:16:20;;;;;;;36.72;28.65;;;;;;;17.48;100.00;102132.50;5104062;28;20111;-75
2023/06/23 07:18:46;;;;;;;35.50;27.15;;;;;;;17.52;100.00;102136.94;5102730;28;20028;-79
2023/06/23 07:21:11;;;;;;;36.50;27.10;;;;;;;17.56;100.00;102128.00;5106244;28;20053;-72
2023/06/23 07:23:37;;;;;;;34.95;26.27;;;;;;;17.62;100.00;102144.03;5099028;28;20028;-75
2023/06/23 07:26:02;;;;;;;33.88;25.55;;;;;;;17.74;100.00;102143.97;5095214;28;20490;-73
2023/06/23 07:28:28;;;;;;;34.35;25.30;;;;;;;17.84;100.00;102135.88;5096958;28;20047;-72
2023/06/23 07:30:53;;;;;;;34.70;25.45;;;;;;;17.94;100.00;102141.22;5101746;28;20035;-71
2023/06/23 07:33:18;;;;;;;31.98;23.73;;;;;;;17.99;100.00;102138.50;5102255;28;20119;-70
2023/06/23 07:35:44;;;;;;;31.80;22.98;;;;;;;18.07;100.00;102144.72;5100350;28;20051;-75
2023/06/23 07:38:09;;;;;;;32.03;23.60;;;;;;;18.14;100.00;102140.19;5105265;28;20476;-73
2023/06/23 07:40:34;;;;;;;32.03;23.52;;;;;;;18.23;100.00;102144.59;5102921;28;20489;-75
2023/06/23 07:43:00;;;;;;;32.72;24.02;;;;;;;18.27;100.00;102149.03;5103532;28;20035;-73
2023/06/23 07:45:25;;;;;;;32.35;23.08;;;;;;;18.41;100.00;102147.13;5105914;28;20036;-77
2023/06/23 07:47:51;;;;;;;32.17;22.15;;;;;;;18.46;100.00;102153.34;5084355;28;20036;-74
2023/06/23 07:50:16;;;;;;;29.20;20.83;;;;;;;18.61;100.00;102152.34;5105885;28;20020;-63
2023/06/23 07:52:43;;;;;;;29.27;20.42;;;;;;;18.60;100.00;102155.91;5103179;28;20020;-65
2023/06/23 07:55:09;;;;;;;29.85;21.08;;;;;;;18.71;100.00;102150.47;5104792;28;20165;-65
2023/06/23 07:57:34;;;;;;;29.85;20.50;;;;;;;18.83;100.00;102146.78;5103024;28;20519;-65
2023/06/23 07:59:59;;;;;;;31.38;21.90;;;;;;;18.95;100.00;102143.13;5086089;28;20032;-65
2023/06/23 08:02:25;;;;;;;30.15;21.30;;;;;;;19.10;100.00;102151.00;5103963;28;20435;-65
2023/06/23 08:04:50;;;;;;;27.83;18.38;;;;;;;19.21;100.00;102160.72;5101733;28;20055;-65
2023/06/23 08:07:16;;;;;;;27.48;18.60;;;;;;;19.30;100.00;102149.91;5095706;28;20497;-66
2023/06/23 08:09:41;;;;;;;26.70;17.23;;;;;;;19.30;100.00;102148.09;5101824;28;20024;-65
2023/06/23 08:12:07;;;;;;;26.90;15.88;;;;;;;19.43;100.00;102148.84;5104574;28;20106;-63
2023/06/23 08:14:32;;;;;;;26.42;16.52;;;;;;;19.46;100.00;102147.94;5102483;28;20062;-65
2023/06/23 10:19:14;;;;;;;17.60;7.32;;;;;;;31.36;52.74;102216.47;5081201;28;20573;-64
2023/06/23 10:21:45;;;;;;;18.25;6.50;;;;;;;32.22;45.46;102211.00;5046489;28;20059;-65
2023/06/23 10:24:18;;;;;;;18.27;6.72;;;;;;;32.40;44.11;102219.84;5045101;28;20037;-64
2023/06/23 10:26:45;;;;;;;18.20;6.50;;;;;;;32.18;43.73;102214.03;5047435;28;20108;-66
2023/06/23 10:29:13;;;;;;;18.48;6.70;;;;;;;30.50;44.48;102217.94;5042856;28;20029;-65
2023/06/23 10:31:41;;;;;;;18.02;6.10;;;;;;;31.55;44.23;102217.06;5043778;28;20108;-66
2023/06/23 10:34:11;;;;;;;18.02;6.72;;;;;;;32.65;39.86;102223.63;5046627;28;20025;-65
2023/06/23 10:36:41;;;;;;;16.88;6.10;;;;;;;32.14;40.97;102214.25;5043985;28;20075;-64
2023/06/23 10:39:10;;;;;;;18.00;6.18;;;;;;;30.30;42.49;102220.94;5046832;28;20376;-73
2023/06/23 10:41:37;;;;;;;17.00;6.20;;;;;;;30.98;41.13;102215.09;5044548;28;20069;-74
2023/06/23 10:44:04;;;;;;;17.58;6.18;;;;;;;32.30;41.12;102222.31;5045879;28;20403;-77
2023/06/23 10:46:30;;;;;;;16.83;5.80;;;;;;;34.02;37.35;102230.47;5045071;28;20032;-75
2023/06/23 10:48:56;;;;;;;18.38;6.40;;;;;;;34.57;36.69;102230.06;5045031;28;20116;-69
2023/06/23 10:51:24;;;;;;;17.27;6.38;;;;;;;34.78;35.72;102229.41;5045779;28;20025;-75
2023/06/23 10:54:01;;;;;;;19.05;6.20;;;;;;;33.01;38.59;102230.31;5045413;28;20112;-79
2023/06/23 10:56:38;;;;;;;17.45;5.75;;;;;;;30.99;42.74;102229.63;5043907;28;20112;-76
2023/06/23 10:59:41;;;;;;;17.00;5.53;;;;;;;32.70;40.79;102224.25;5044807;28;20052;-77
2023/06/23 11:02:10;;;;;;;17.20;5.93;;;;;;;33.12;38.68;102227.72;5015486;28;20048;-76
2023/06/23 11:04:38;;;;;;;16.45;6.00;;;;;;;33.31;37.56;102226.47;5049424;28;20051;-71
2023/06/23 11:07:06;;;;;;;16.88;5.80;;;;;;;33.08;37.31;102230.78;5049646;28;20043;-73
2023/06/23 11:09:58;;;;;;;16.35;5.95;;;;;;;31.09;41.71;102225.38;5049275;28;20468;-78
2023/06/23 11:12:33;;;;;;;15.60;5.20;;;;;;;29.24;45.13;102233.97;5050974;28;20033;-76
2023/06/23 11:15:08;;;;;;;15.68;5.53;;;;;;;30.30;46.29;102234.56;5047994;28;20029;-75
2023/06/23 11:18:00;;;;;;;17.48;6.53;;;;;;;32.18;41.49;102224.97;5050685;28;20049;-75
2023/06/23 11:20:25;;;;;;;18.27;6.45;;;;;;;32.92;39.34;102233.72;5069711;28;20055;-75
2023/06/23 11:23:00;;;;;;;17.43;6.27;;;;;;;33.54;38.35;102235.78;5104707;28;20028;-79
2023/06/23 11:25:31;;;;;;;17.02;5.70;;;;;;;34.69;35.75;102237.38;5103631;28;20270;-74
2023/06/23 11:28:34;;;;;;;16.67;5.23;;;;;;;35.41;36.00;102235.50;5099068;28;20032;-75
2023/06/23 11:30:59;;;;;;;14.05;4.90;;;;;;;33.32;35.01;102234.56;5103486;28;20506;-82
2023/06/23 11:33:29;;;;;;;14.73;5.20;;;;;;;33.46;37.97;102236.31;5106705;28;20070;-78
2023/06/23 11:35:55;;;;;;;17.98;6.30;;;;;;;31.98;38.97;102240.81;5105188;28;20350;-78
2023/06/23 11:38:21;;;;;;;17.95;5.88;;;;;;;32.79;38.60;102236.41;5106747;28;20106;-70
2023/06/23 11:40:49;;;;;;;16.77;5.75;;;;;;;32.86;37.61;102236.88;5103041;28;20028;-71
2023/06/23 11:43:14;;;;;;;17.52;6.70;;;;;;;31.32;40.10;102229.44;5105524;28;20023;-76
2023/06/23 11:46:09;;;;;;;17.92;6.45;;;;;;;31.42;42.84;102244.28;5103793;28;20500;-75
2023/06/23 11:48:36;;;;;;;18.00;6.20;;;;;;;33.28;38.46;102238.50;5095768;28;20068;-82
2023/06/23 11:51:03;;;;;;;16.95;5.90;;;;;;;34.86;34.41;102235.22;5105585;28;20028;-80
2023/06/23 11:53:29;;;;;;;18.23;6.10;;;;;;;35.57;33.60;102237.91;5103896;28;20486;-75
2023/06/23 11:55:55;;;;;;;15.48;5.20;;;;;;;35.90;32.68;102236.19;5096058;27;20081;-77
2023/06/23 11:58:20;;;;;;;15.23;5.40;;;;;;;34.82;32.71;102237.34;5098658;28;20032;-69
2023/06/23 12:00:46;;;;;;;19.67;5.25;;;;;;;33.65;34.93;102235.84;5103673;28;20031;-75
2023/06/23 12:03:15;;;;;;;12.52;4.75;;;;;;;34.08;34.42;102236.47;5104966;28;20036;-73
2023/06/23 12:05:41;;;;;;;14.52;5.03;;;;;;;34.89;32.89;102237.72;5103121;28;20470;-80
2023/06/23 12:08:07;;;;;;;14.38;4.80;;;;;;;36.35;30.22;102230.63;5104547;28;20029;-68
2023/06/23 12:10:51;;;;;;;13.80;4.80;;;;;;;36.86;30.24;102233.69;5104216;28;20023;-76
2023/06/23 12:13:19;;;;;;;17.15;5.75;;;;;;;37.26;29.20;102236.63;5098801;28;20040;-69
2023/06/23 12:15:45;;;;;;;15.90;5.57;;;;;;;36.50;30.44;102235.84;5105817;28;20106;-75
2023/06/23 12:18:11;;;;;;;14.80;5.25;;;;;;;34.37;32.86;102224.25;5102011;28;20222;-70
2023/06/23 12:20:41;;;;;;;15.82;5.35;;;;;;;32.58;37.37;102228.66;5105093;28;20043;-72
2023/06/23 12:23:10;;;;;;;15.30;5.15;;;;;;;32.61;37.65;102224.84;5102566;28;20496;-73
2023/06/23 12:25:41;;;;;;;17.52;5.80;;;;;;;33.99;35.28;102227.97;5105996;28;20024;-79
2023/06/23 12:28:13;;;;;;;16.38;5.68;;;;;;;35.09;33.76;102217.78;5098261;28;20089;-80
2023/06/23 12:30:40;;;;;;;17.30;6.10;;;;;;;36.56;31.83;102225.16;5098583;28;20530;-63
2023/06/23 12:33:16;;;;;;;16.05;5.93;;;;;;;35.95;32.89;102222.91;5105382;28;20024;-64
2023/06/23 12:36:02;;;;;;;15.32;5.38;;;;;;;36.16;32.98;102230.38;5099128;28;20031;-64
2023/06/23 12:38:28;;;;;;;15.43;5.43;;;;;;;37.39;30.80;102236.41;5102109;28;20068;-64
2023/06/23 12:40:54;;;;;;;16.25;5.63;;;;;;;37.39;30.72;102236.41;5103025;28;20491;-63
2023/06/23 12:43:21;;;;;;;14.07;4.78;;;;;;;38.29;28.86;102226.47;5105022;28;20036;-65
2023/06/23 12:45:48;;;;;;;17.08;4.75;;;;;;;38.34;28.15;102228.81;5097404;28;20548;-65
2023/06/23 12:48:14;;;;;;;13.50;4.70;;;;;;;39.30;27.51;102230.84;5105158;28;20036;-63
2023/06/23 12:50:42;;;;;;;14.20;4.50;;;;;;;39.74;26.53;102226.47;5104491;28;20040;-62
2023/06/23 12:53:09;;;;;;;14.13;4.50;;;;;;;40.58;25.02;102229.19;5101435;28;20029;-62
2023/06/23 12:55:35;;;;;;;13.48;4.60;;;;;;;40.37;24.94;102226.69;5104530;28;20394;-61
2023/06/23 12:58:00;;;;;;;14.43;4.40;;;;;;;39.98;25.64;102227.78;5102617;28;20024;-65
2023/06/23 13:00:26;;;;;;;11.45;4.03;;;;;;;38.53;26.92;102225.19;5103140;28;20459;-66
2023/06/23 13:02:53;;;;;;;12.60;4.53;;;;;;;37.98;26.26;102222.88;5101806;28;20423;-66
2023/06/23 13:05:19;;;;;;;11.98;4.30;;;;;;;39.02;25.61;102216.91;5103049;28;20032;-66
2023/06/23 13:07:45;;;;;;;14.18;5.05;;;;;;;39.15;26.61;102222.16;5102150;28;20107;-66
2023/06/23 13:10:10;;;;;;;15.43;5.47;;;;;;;39.18;26.87;102227.38;5104412;28;20123;-63
2023/06/23 13:12:36;;;;;;;14.68;5.45;;;;;;;39.84;24.71;102220.00;5101050;28;20485;-68
2023/06/23 13:15:03;;;;;;;16.42;4.80;;;;;;;40.79;24.74;102220.53;5096303;28;20494;-66
2023/06/23 13:17:29;;;;;;;14.07;5.00;;;;;;;40.27;24.80;102218.47;5101071;28;20030;-69